sensor_id;sensor_type;location;lat;lon;timestamp;P1;durP1;ratioP1;P2;durP2;ratioP2
15699;SDS011;7950;42.744;23.174;2023-03-01T00:01:13;8.77;;;5.50;;
15699;SDS011;7950;42.744;23.174;2023-03-01T00:03:44;7.90;;;4.50;;
15699;SDS011;7950;42.744;23.174;2023-03-01T00:06:13;13.17;;;6.90;;
15699;SDS011;7950;42.744;23.174;2023-03-01T00:08:42;14.00;;;6.97;;
15699;SDS011;7950;42.744;23.174;2023-03-01T00:11:12;14.00;;;8.00;;
15699;SDS011;7950;42.744;23.174;2023-03-01T00:13:45;10.63;;;6.23;;
15699;SDS011;7950;42.744;23.174;2023-03-01T00:16:17;9.00;;;5.93;;
15699;SDS011;7950;42.744;23.174;2023-03-01T00:18:48;9.10;;;6.07;;
15699;SDS011;7950;42.744;23.174;2023-03-01T00:21:18;11.50;;;7.93;;
15699;SDS011;7950;42.744;23.174;2023-03-01T00:23:48;8.80;;;5.63;;
15699;SDS011;7950;42.744;23.174;2023-03-01T00:26:18;8.37;;;4.47;;
15699;SDS011;7950;42.744;23.174;2023-03-01T00:28:50;8.27;;;4.50;;
15699;SDS011;7950;42.744;23.174;2023-03-01T00:31:20;5.73;;;4.63;;
15699;SDS011;7950;42.744;23.174;2023-03-01T00:33:52;6.57;;;4.70;;
15699;SDS011;7950;42.744;23.174;2023-03-01T00:36:23;31.13;;;13.00;;
15699;SDS011;7950;42.744;23.174;2023-03-01T00:38:55;26.30;;;12.23;;
15699;SDS011;7950;42.744;23.174;2023-03-01T00:41:27;11.33;;;8.00;;
15699;SDS011;7950;42.744;23.174;2023-03-01T00:43:57;12.43;;;8.30;;
15699;SDS011;7950;42.744;23.174;2023-03-01T00:46:26;12.63;;;8.23;;
15699;SDS011;7950;42.744;23.174;2023-03-01T00:48:57;20.60;;;12.13;;
15699;SDS011;7950;42.744;23.174;2023-03-01T00:51:28;11.70;;;6.93;;
15699;SDS011;7950;42.744;23.174;2023-03-01T00:53:58;19.07;;;9.93;;
15699;SDS011;7950;42.744;23.174;2023-03-01T00:56:30;14.83;;;7.90;;
15699;SDS011;7950;42.744;23.174;2023-03-01T00:59:01;16.90;;;9.17;;
15699;SDS011;7950;42.744;23.174;2023-03-01T01:01:30;10.93;;;6.27;;
15699;SDS011;7950;42.744;23.174;2023-03-01T01:04:00;5.87;;;3.77;;
15699;SDS011;7950;42.744;23.174;2023-03-01T01:06:32;5.57;;;4.23;;
15699;SDS011;7950;42.744;23.174;2023-03-01T01:09:04;10.20;;;6.20;;
15699;SDS011;7950;42.744;23.174;2023-03-01T01:11:34;6.67;;;4.50;;
15699;SDS011;7950;42.744;23.174;2023-03-01T01:14:05;6.93;;;4.87;;
15699;SDS011;7950;42.744;23.174;2023-03-01T01:16:33;8.33;;;5.00;;
15699;SDS011;7950;42.744;23.174;2023-03-01T01:19:02;5.23;;;3.67;;
15699;SDS011;7950;42.744;23.174;2023-03-01T01:21:30;6.27;;;4.40;;
15699;SDS011;7950;42.744;23.174;2023-03-01T01:23:59;5.50;;;3.70;;
15699;SDS011;7950;42.744;23.174;2023-03-01T01:26:30;11.33;;;6.60;;
15699;SDS011;7950;42.744;23.174;2023-03-01T01:29:02;8.90;;;6.63;;
15699;SDS011;7950;42.744;23.174;2023-03-01T01:31:33;7.27;;;5.30;;
15699;SDS011;7950;42.744;23.174;2023-03-01T01:36:53;3.80;;;3.40;;
15699;SDS011;7950;42.744;23.174;2023-03-01T01:39:22;4.50;;;3.67;;
15699;SDS011;7950;42.744;23.174;2023-03-01T01:41:51;2.93;;;2.40;;
15699;SDS011;7950;42.744;23.174;2023-03-01T01:44:22;2.90;;;2.60;;
15699;SDS011;7950;42.744;23.174;2023-03-01T01:46:53;3.63;;;2.67;;
15699;SDS011;7950;42.744;23.174;2023-03-01T01:49:27;4.57;;;3.27;;
15699;SDS011;7950;42.744;23.174;2023-03-01T01:52:03;2.80;;;2.60;;
15699;SDS011;7950;42.744;23.174;2023-03-01T01:54:39;3.90;;;3.50;;
15699;SDS011;7950;42.744;23.174;2023-03-01T02:00:50;3.67;;;3.20;;
15699;SDS011;7950;42.744;23.174;2023-03-01T02:03:20;2.80;;;2.60;;
15699;SDS011;7950;42.744;23.174;2023-03-01T02:05:57;2.67;;;2.37;;
15699;SDS011;7950;42.744;23.174;2023-03-01T02:08:47;3.27;;;2.30;;
15699;SDS011;7950;42.744;23.174;2023-03-01T02:11:20;2.53;;;2.27;;
15699;SDS011;7950;42.744;23.174;2023-03-01T02:13:49;2.20;;;2.00;;
15699;SDS011;7950;42.744;23.174;2023-03-01T02:16:20;2.67;;;2.27;;
15699;SDS011;7950;42.744;23.174;2023-03-01T02:18:49;3.33;;;2.30;;
15699;SDS011;7950;42.744;23.174;2023-03-01T02:21:30;2.53;;;2.27;;
15699;SDS011;7950;42.744;23.174;2023-03-01T02:24:14;2.47;;;2.27;;
15699;SDS011;7950;42.744;23.174;2023-03-01T02:27:31;3.13;;;2.30;;
15699;SDS011;7950;42.744;23.174;2023-03-01T02:30:10;2.80;;;2.47;;
15699;SDS011;7950;42.744;23.174;2023-03-01T02:32:51;3.10;;;2.43;;
15699;SDS011;7950;42.744;23.174;2023-03-01T02:35:29;3.20;;;2.30;;
15699;SDS011;7950;42.744;23.174;2023-03-01T02:38:01;2.90;;;2.27;;
15699;SDS011;7950;42.744;23.174;2023-03-01T02:40:33;3.20;;;2.30;;
15699;SDS011;7950;42.744;23.174;2023-03-01T02:43:06;3.07;;;2.33;;
15699;SDS011;7950;42.744;23.174;2023-03-01T02:45:47;3.10;;;2.40;;
15699;SDS011;7950;42.744;23.174;2023-03-01T02:48:26;2.90;;;2.50;;
15699;SDS011;7950;42.744;23.174;2023-03-01T02:51:02;2.57;;;2.10;;
15699;SDS011;7950;42.744;23.174;2023-03-01T02:53:39;2.60;;;2.00;;
15699;SDS011;7950;42.744;23.174;2023-03-01T02:56:20;2.40;;;2.20;;
15699;SDS011;7950;42.744;23.174;2023-03-01T02:58:49;2.63;;;2.30;;
15699;SDS011;7950;42.744;23.174;2023-03-01T03:01:19;2.20;;;2.00;;
15699;SDS011;7950;42.744;23.174;2023-03-01T03:03:49;2.90;;;2.10;;
15699;SDS011;7950;42.744;23.174;2023-03-01T03:06:18;2.90;;;2.17;;
15699;SDS011;7950;42.744;23.174;2023-03-01T03:08:46;2.90;;;1.97;;
15699;SDS011;7950;42.744;23.174;2023-03-01T03:11:15;4.27;;;2.23;;
15699;SDS011;7950;42.744;23.174;2023-03-01T03:13:43;2.20;;;1.70;;
15699;SDS011;7950;42.744;23.174;2023-03-01T03:16:14;2.47;;;1.90;;
15699;SDS011;7950;42.744;23.174;2023-03-01T03:18:44;1.80;;;1.40;;
15699;SDS011;7950;42.744;23.174;2023-03-01T03:24:06;1.63;;;1.50;;
15699;SDS011;7950;42.744;23.174;2023-03-01T03:29:28;4.37;;;2.40;;
15699;SDS011;7950;42.744;23.174;2023-03-01T03:34:52;1.40;;;1.30;;
15699;SDS011;7950;42.744;23.174;2023-03-01T03:37:21;1.50;;;1.40;;
15699;SDS011;7950;42.744;23.174;2023-03-01T03:40:07;2.77;;;1.80;;
15699;SDS011;7950;42.744;23.174;2023-03-01T03:42:41;3.20;;;2.20;;
15699;SDS011;7950;42.744;23.174;2023-03-01T03:45:10;2.30;;;2.00;;
15699;SDS011;7950;42.744;23.174;2023-03-01T03:47:38;2.13;;;1.90;;
15699;SDS011;7950;42.744;23.174;2023-03-01T03:50:09;2.30;;;1.53;;
15699;SDS011;7950;42.744;23.174;2023-03-01T03:52:40;2.47;;;1.60;;
15699;SDS011;7950;42.744;23.174;2023-03-01T03:55:23;2.03;;;1.73;;
15699;SDS011;7950;42.744;23.174;2023-03-01T03:57:57;2.07;;;1.70;;
15699;SDS011;7950;42.744;23.174;2023-03-01T04:03:18;2.70;;;1.80;;
15699;SDS011;7950;42.744;23.174;2023-03-01T04:05:49;1.60;;;1.50;;
15699;SDS011;7950;42.744;23.174;2023-03-01T04:08:19;2.43;;;1.93;;
15699;SDS011;7950;42.744;23.174;2023-03-01T04:10:50;3.17;;;2.20;;
15699;SDS011;7950;42.744;23.174;2023-03-01T04:13:24;12.60;;;5.57;;
15699;SDS011;7950;42.744;23.174;2023-03-01T04:15:53;17.77;;;7.83;;
15699;SDS011;7950;42.744;23.174;2023-03-01T04:18:22;16.63;;;7.33;;
15699;SDS011;7950;42.744;23.174;2023-03-01T04:20:53;11.47;;;4.03;;
15699;SDS011;7950;42.744;23.174;2023-03-01T04:23:22;10.50;;;4.70;;
15699;SDS011;7950;42.744;23.174;2023-03-01T04:25:52;8.23;;;3.47;;
15699;SDS011;7950;42.744;23.174;2023-03-01T04:28:23;5.80;;;3.23;;
15699;SDS011;7950;42.744;23.174;2023-03-01T04:30:55;12.03;;;5.57;;
15699;SDS011;7950;42.744;23.174;2023-03-01T04:33:26;10.00;;;4.73;;
15699;SDS011;7950;42.744;23.174;2023-03-01T04:35:56;11.10;;;5.27;;
15699;SDS011;7950;42.744;23.174;2023-03-01T04:38:25;15.00;;;5.90;;
15699;SDS011;7950;42.744;23.174;2023-03-01T04:40:54;10.97;;;4.40;;
15699;SDS011;7950;42.744;23.174;2023-03-01T04:43:22;9.27;;;4.20;;
15699;SDS011;7950;42.744;23.174;2023-03-01T04:45:50;5.97;;;2.37;;
15699;SDS011;7950;42.744;23.174;2023-03-01T04:48:19;6.07;;;3.10;;
15699;SDS011;7950;42.744;23.174;2023-03-01T04:50:51;5.13;;;2.87;;
15699;SDS011;7950;42.744;23.174;2023-03-01T04:53:21;4.07;;;2.83;;
15699;SDS011;7950;42.744;23.174;2023-03-01T04:55:51;5.07;;;2.60;;
15699;SDS011;7950;42.744;23.174;2023-03-01T04:58:19;6.47;;;3.77;;
15699;SDS011;7950;42.744;23.174;2023-03-01T05:00:48;3.37;;;2.40;;
15699;SDS011;7950;42.744;23.174;2023-03-01T05:03:16;6.57;;;3.07;;
15699;SDS011;7950;42.744;23.174;2023-03-01T05:08:41;3.63;;;2.30;;
15699;SDS011;7950;42.744;23.174;2023-03-01T05:11:10;7.07;;;3.30;;
15699;SDS011;7950;42.744;23.174;2023-03-01T05:13:39;10.43;;;4.97;;
15699;SDS011;7950;42.744;23.174;2023-03-01T05:16:08;8.07;;;3.33;;
15699;SDS011;7950;42.744;23.174;2023-03-01T05:18:39;8.00;;;3.37;;
15699;SDS011;7950;42.744;23.174;2023-03-01T05:21:09;9.27;;;3.93;;
15699;SDS011;7950;42.744;23.174;2023-03-01T05:23:41;5.20;;;2.50;;
15699;SDS011;7950;42.744;23.174;2023-03-01T05:26:09;2.43;;;1.37;;
15699;SDS011;7950;42.744;23.174;2023-03-01T05:28:53;4.90;;;2.83;;
15699;SDS011;7950;42.744;23.174;2023-03-01T05:31:25;4.43;;;1.97;;
15699;SDS011;7950;42.744;23.174;2023-03-01T05:33:54;1.83;;;1.50;;
15699;SDS011;7950;42.744;23.174;2023-03-01T05:36:23;3.23;;;2.13;;
15699;SDS011;7950;42.744;23.174;2023-03-01T05:38:53;1.63;;;1.37;;
15699;SDS011;7950;42.744;23.174;2023-03-01T05:41:22;3.37;;;2.27;;
15699;SDS011;7950;42.744;23.174;2023-03-01T05:43:50;2.97;;;2.13;;
15699;SDS011;7950;42.744;23.174;2023-03-01T05:46:19;3.17;;;1.97;;
15699;SDS011;7950;42.744;23.174;2023-03-01T05:48:48;2.60;;;2.00;;
15699;SDS011;7950;42.744;23.174;2023-03-01T05:51:17;2.97;;;1.90;;
15699;SDS011;7950;42.744;23.174;2023-03-01T05:53:46;3.50;;;2.20;;
15699;SDS011;7950;42.744;23.174;2023-03-01T05:56:15;4.07;;;2.40;;
15699;SDS011;7950;42.744;23.174;2023-03-01T05:58:44;3.80;;;1.90;;
15699;SDS011;7950;42.744;23.174;2023-03-01T06:01:12;5.40;;;2.50;;
15699;SDS011;7950;42.744;23.174;2023-03-01T06:03:41;3.80;;;2.60;;
15699;SDS011;7950;42.744;23.174;2023-03-01T06:06:09;3.40;;;2.30;;
15699;SDS011;7950;42.744;23.174;2023-03-01T06:08:38;5.10;;;2.70;;
15699;SDS011;7950;42.744;23.174;2023-03-01T06:11:07;4.57;;;2.67;;
15699;SDS011;7950;42.744;23.174;2023-03-01T06:13:36;3.83;;;2.50;;
15699;SDS011;7950;42.744;23.174;2023-03-01T06:16:05;3.90;;;2.90;;
15699;SDS011;7950;42.744;23.174;2023-03-01T06:18:35;3.97;;;2.03;;
15699;SDS011;7950;42.744;23.174;2023-03-01T06:21:04;2.97;;;2.20;;
15699;SDS011;7950;42.744;23.174;2023-03-01T06:23:35;4.07;;;1.57;;
15699;SDS011;7950;42.744;23.174;2023-03-01T06:26:05;7.37;;;1.90;;
15699;SDS011;7950;42.744;23.174;2023-03-01T06:28:34;3.57;;;2.50;;
15699;SDS011;7950;42.744;23.174;2023-03-01T06:31:04;5.00;;;2.53;;
15699;SDS011;7950;42.744;23.174;2023-03-01T06:33:35;3.10;;;2.03;;
15699;SDS011;7950;42.744;23.174;2023-03-01T06:36:04;2.70;;;2.07;;
15699;SDS011;7950;42.744;23.174;2023-03-01T06:38:33;3.03;;;1.90;;
15699;SDS011;7950;42.744;23.174;2023-03-01T06:41:02;2.47;;;2.00;;
15699;SDS011;7950;42.744;23.174;2023-03-01T06:43:31;6.73;;;2.30;;
15699;SDS011;7950;42.744;23.174;2023-03-01T06:46:02;4.40;;;1.97;;
15699;SDS011;7950;42.744;23.174;2023-03-01T06:48:33;5.57;;;2.37;;
15699;SDS011;7950;42.744;23.174;2023-03-01T06:51:01;3.73;;;2.17;;
15699;SDS011;7950;42.744;23.174;2023-03-01T06:53:30;4.90;;;2.50;;
15699;SDS011;7950;42.744;23.174;2023-03-01T06:55:59;7.17;;;3.87;;
15699;SDS011;7950;42.744;23.174;2023-03-01T06:58:27;7.47;;;3.60;;
15699;SDS011;7950;42.744;23.174;2023-03-01T07:00:56;7.43;;;4.27;;
15699;SDS011;7950;42.744;23.174;2023-03-01T07:03:26;9.40;;;3.80;;
15699;SDS011;7950;42.744;23.174;2023-03-01T07:05:54;4.60;;;3.07;;
15699;SDS011;7950;42.744;23.174;2023-03-01T07:08:23;5.27;;;3.73;;
15699;SDS011;7950;42.744;23.174;2023-03-01T07:10:54;5.80;;;3.20;;
15699;SDS011;7950;42.744;23.174;2023-03-01T07:13:23;6.90;;;3.57;;
15699;SDS011;7950;42.744;23.174;2023-03-01T07:15:52;3.60;;;3.03;;
15699;SDS011;7950;42.744;23.174;2023-03-01T07:18:20;3.40;;;2.87;;
15699;SDS011;7950;42.744;23.174;2023-03-01T07:20:50;3.60;;;2.77;;
15699;SDS011;7950;42.744;23.174;2023-03-01T07:23:19;5.97;;;2.97;;
15699;SDS011;7950;42.744;23.174;2023-03-01T07:25:51;4.93;;;2.97;;
15699;SDS011;7950;42.744;23.174;2023-03-01T07:28:20;4.40;;;3.10;;
15699;SDS011;7950;42.744;23.174;2023-03-01T07:30:50;6.83;;;3.40;;
15699;SDS011;7950;42.744;23.174;2023-03-01T07:33:19;4.00;;;2.73;;
15699;SDS011;7950;42.744;23.174;2023-03-01T07:35:48;4.03;;;2.60;;
15699;SDS011;7950;42.744;23.174;2023-03-01T07:38:25;3.13;;;2.47;;
15699;SDS011;7950;42.744;23.174;2023-03-01T07:40:57;5.27;;;2.67;;
15699;SDS011;7950;42.744;23.174;2023-03-01T07:43:31;3.93;;;3.30;;
15699;SDS011;7950;42.744;23.174;2023-03-01T07:46:01;3.50;;;2.97;;
15699;SDS011;7950;42.744;23.174;2023-03-01T07:48:31;4.43;;;2.73;;
15699;SDS011;7950;42.744;23.174;2023-03-01T07:51:03;3.93;;;2.80;;
15699;SDS011;7950;42.744;23.174;2023-03-01T07:53:33;3.30;;;2.57;;
15699;SDS011;7950;42.744;23.174;2023-03-01T07:56:03;4.67;;;2.83;;
15699;SDS011;7950;42.744;23.174;2023-03-01T07:58:33;5.37;;;2.80;;
15699;SDS011;7950;42.744;23.174;2023-03-01T08:01:02;5.07;;;3.10;;
15699;SDS011;7950;42.744;23.174;2023-03-01T08:03:33;2.57;;;2.37;;
15699;SDS011;7950;42.744;23.174;2023-03-01T08:06:07;3.03;;;2.30;;
15699;SDS011;7950;42.744;23.174;2023-03-01T08:08:38;4.43;;;3.10;;
15699;SDS011;7950;42.744;23.174;2023-03-01T08:11:09;3.83;;;3.00;;
15699;SDS011;7950;42.744;23.174;2023-03-01T08:13:40;5.50;;;3.83;;
15699;SDS011;7950;42.744;23.174;2023-03-01T08:16:10;3.93;;;3.50;;
15699;SDS011;7950;42.744;23.174;2023-03-01T08:18:41;3.20;;;2.90;;
15699;SDS011;7950;42.744;23.174;2023-03-01T08:21:12;4.20;;;2.83;;
15699;SDS011;7950;42.744;23.174;2023-03-01T08:23:43;5.80;;;3.40;;
15699;SDS011;7950;42.744;23.174;2023-03-01T08:29:51;5.73;;;2.90;;
15699;SDS011;7950;42.744;23.174;2023-03-01T08:32:19;4.23;;;3.10;;
15699;SDS011;7950;42.744;23.174;2023-03-01T08:34:48;4.43;;;2.50;;
15699;SDS011;7950;42.744;23.174;2023-03-01T08:37:33;4.07;;;2.77;;
15699;SDS011;7950;42.744;23.174;2023-03-01T08:40:02;4.97;;;2.60;;
15699;SDS011;7950;42.744;23.174;2023-03-01T08:42:34;4.00;;;3.00;;
15699;SDS011;7950;42.744;23.174;2023-03-01T08:45:02;5.83;;;4.13;;
15699;SDS011;7950;42.744;23.174;2023-03-01T08:47:32;5.30;;;3.40;;
15699;SDS011;7950;42.744;23.174;2023-03-01T08:50:01;3.50;;;3.20;;
15699;SDS011;7950;42.744;23.174;2023-03-01T08:52:31;5.07;;;2.97;;
15699;SDS011;7950;42.744;23.174;2023-03-01T08:55:01;5.63;;;5.07;;
15699;SDS011;7950;42.744;23.174;2023-03-01T08:57:30;4.27;;;3.23;;
15699;SDS011;7950;42.744;23.174;2023-03-01T09:00:03;3.63;;;3.30;;
15699;SDS011;7950;42.744;23.174;2023-03-01T09:02:35;5.43;;;3.37;;
15699;SDS011;7950;42.744;23.174;2023-03-01T09:05:08;4.70;;;3.80;;
15699;SDS011;7950;42.744;23.174;2023-03-01T09:07:38;5.50;;;4.97;;
15699;SDS011;7950;42.744;23.174;2023-03-01T09:10:08;5.80;;;5.17;;
15699;SDS011;7950;42.744;23.174;2023-03-01T09:12:38;5.60;;;4.83;;
15699;SDS011;7950;42.744;23.174;2023-03-01T09:15:07;7.80;;;6.00;;
15699;SDS011;7950;42.744;23.174;2023-03-01T09:17:37;4.67;;;4.20;;
15699;SDS011;7950;42.744;23.174;2023-03-01T09:20:06;5.97;;;5.47;;
15699;SDS011;7950;42.744;23.174;2023-03-01T09:22:35;4.97;;;4.50;;
15699;SDS011;7950;42.744;23.174;2023-03-01T09:25:06;5.03;;;4.60;;
15699;SDS011;7950;42.744;23.174;2023-03-01T09:27:36;5.13;;;4.63;;
15699;SDS011;7950;42.744;23.174;2023-03-01T09:30:05;4.90;;;4.43;;
15699;SDS011;7950;42.744;23.174;2023-03-01T09:32:35;4.07;;;3.30;;
15699;SDS011;7950;42.744;23.174;2023-03-01T09:35:04;7.37;;;4.87;;
15699;SDS011;7950;42.744;23.174;2023-03-01T09:37:34;4.50;;;3.80;;
15699;SDS011;7950;42.744;23.174;2023-03-01T09:40:06;4.00;;;3.60;;
15699;SDS011;7950;42.744;23.174;2023-03-01T09:42:46;5.57;;;5.00;;
15699;SDS011;7950;42.744;23.174;2023-03-01T09:45:29;4.97;;;4.20;;
15699;SDS011;7950;42.744;23.174;2023-03-01T09:48:05;4.40;;;3.23;;
15699;SDS011;7950;42.744;23.174;2023-03-01T09:50:43;3.33;;;3.03;;
15699;SDS011;7950;42.744;23.174;2023-03-01T09:53:20;5.13;;;3.90;;
15699;SDS011;7950;42.744;23.174;2023-03-01T09:59:21;5.43;;;4.93;;
15699;SDS011;7950;42.744;23.174;2023-03-01T10:02:00;5.33;;;3.87;;
15699;SDS011;7950;42.744;23.174;2023-03-01T10:04:51;4.80;;;3.13;;
15699;SDS011;7950;42.744;23.174;2023-03-01T10:07:32;5.67;;;5.07;;
15699;SDS011;7950;42.744;23.174;2023-03-01T10:10:23;6.23;;;5.33;;
15699;SDS011;7950;42.744;23.174;2023-03-01T10:13:00;5.57;;;4.03;;
15699;SDS011;7950;42.744;23.174;2023-03-01T10:15:43;5.63;;;4.47;;
15699;SDS011;7950;42.744;23.174;2023-03-01T10:18:23;5.00;;;3.63;;
15699;SDS011;7950;42.744;23.174;2023-03-01T10:20:57;3.57;;;3.23;;
15699;SDS011;7950;42.744;23.174;2023-03-01T10:26:47;2.57;;;2.37;;
15699;SDS011;7950;42.744;23.174;2023-03-01T10:29:24;2.57;;;2.33;;
15699;SDS011;7950;42.744;23.174;2023-03-01T10:32:02;2.47;;;2.20;;
15699;SDS011;7950;42.744;23.174;2023-03-01T10:34:35;2.40;;;1.97;;
15699;SDS011;7950;42.744;23.174;2023-03-01T10:37:12;5.97;;;4.17;;
15699;SDS011;7950;42.744;23.174;2023-03-01T10:39:55;4.53;;;3.90;;
15699;SDS011;7950;42.744;23.174;2023-03-01T10:42:27;2.77;;;2.57;;
15699;SDS011;7950;42.744;23.174;2023-03-01T10:45:11;2.50;;;2.30;;
15699;SDS011;7950;42.744;23.174;2023-03-01T10:48:02;3.93;;;3.20;;
15699;SDS011;7950;42.744;23.174;2023-03-01T10:50:38;2.77;;;2.57;;
15699;SDS011;7950;42.744;23.174;2023-03-01T10:53:22;4.17;;;3.30;;
15699;SDS011;7950;42.744;23.174;2023-03-01T10:55:59;2.37;;;2.17;;
15699;SDS011;7950;42.744;23.174;2023-03-01T10:58:33;2.53;;;2.13;;
15699;SDS011;7950;42.744;23.174;2023-03-01T11:01:06;1.97;;;1.80;;
15699;SDS011;7950;42.744;23.174;2023-03-01T11:04:03;3.67;;;2.10;;
15699;SDS011;7950;42.744;23.174;2023-03-01T11:06:39;4.00;;;2.97;;
15699;SDS011;7950;42.744;23.174;2023-03-01T11:09:17;4.20;;;2.50;;
15699;SDS011;7950;42.744;23.174;2023-03-01T11:11:51;2.40;;;1.90;;
15699;SDS011;7950;42.744;23.174;2023-03-01T11:14:22;6.63;;;4.50;;
15699;SDS011;7950;42.744;23.174;2023-03-01T11:16:59;7.97;;;4.73;;
15699;SDS011;7950;42.744;23.174;2023-03-01T11:19:31;8.13;;;4.73;;
15699;SDS011;7950;42.744;23.174;2023-03-01T11:22:02;2.30;;;2.00;;
15699;SDS011;7950;42.744;23.174;2023-03-01T11:24:34;2.07;;;1.87;;
15699;SDS011;7950;42.744;23.174;2023-03-01T11:27:18;3.20;;;1.70;;
15699;SDS011;7950;42.744;23.174;2023-03-01T11:29:53;1.60;;;1.50;;
15699;SDS011;7950;42.744;23.174;2023-03-01T11:32:33;3.50;;;3.07;;
15699;SDS011;7950;42.744;23.174;2023-03-01T11:35:10;3.53;;;2.93;;
15699;SDS011;7950;42.744;23.174;2023-03-01T11:37:51;2.77;;;2.20;;
15699;SDS011;7950;42.744;23.174;2023-03-01T11:40:32;2.03;;;1.70;;
15699;SDS011;7950;42.744;23.174;2023-03-01T11:43:09;5.60;;;4.47;;
15699;SDS011;7950;42.744;23.174;2023-03-01T11:45:52;3.70;;;2.40;;
15699;SDS011;7950;42.744;23.174;2023-03-01T11:48:58;2.27;;;1.97;;
15699;SDS011;7950;42.744;23.174;2023-03-01T11:51:47;4.57;;;3.17;;
15699;SDS011;7950;42.744;23.174;2023-03-01T11:54:27;3.47;;;2.63;;
15699;SDS011;7950;42.744;23.174;2023-03-01T11:57:17;7.20;;;4.57;;
15699;SDS011;7950;42.744;23.174;2023-03-01T12:03:16;4.07;;;3.07;;
15699;SDS011;7950;42.744;23.174;2023-03-01T12:06:24;4.97;;;3.47;;
15699;SDS011;7950;42.744;23.174;2023-03-01T12:09:11;3.40;;;2.00;;
15699;SDS011;7950;42.744;23.174;2023-03-01T12:12:06;4.17;;;3.50;;
15699;SDS011;7950;42.744;23.174;2023-03-01T12:15:04;2.27;;;2.07;;
15699;SDS011;7950;42.744;23.174;2023-03-01T12:18:18;3.47;;;2.73;;
15699;SDS011;7950;42.744;23.174;2023-03-01T12:21:16;5.13;;;4.27;;
15699;SDS011;7950;42.744;23.174;2023-03-01T12:24:23;8.47;;;5.57;;
15699;SDS011;7950;42.744;23.174;2023-03-01T12:27:27;6.83;;;4.53;;
15699;SDS011;7950;42.744;23.174;2023-03-01T12:30:34;5.50;;;4.33;;
15699;SDS011;7950;42.744;23.174;2023-03-01T12:33:25;9.93;;;6.90;;
15699;SDS011;7950;42.744;23.174;2023-03-01T12:36:15;10.23;;;7.03;;
15699;SDS011;7950;42.744;23.174;2023-03-01T12:39:01;13.00;;;7.50;;
15699;SDS011;7950;42.744;23.174;2023-03-01T12:41:55;15.50;;;9.33;;
15699;SDS011;7950;42.744;23.174;2023-03-01T12:44:44;8.67;;;5.13;;
15699;SDS011;7950;42.744;23.174;2023-03-01T12:47:55;5.33;;;3.60;;
15699;SDS011;7950;42.744;23.174;2023-03-01T12:50:46;8.77;;;6.10;;
15699;SDS011;7950;42.744;23.174;2023-03-01T12:53:22;14.40;;;7.10;;
15699;SDS011;7950;42.744;23.174;2023-03-01T12:55:54;3.10;;;2.70;;
15699;SDS011;7950;42.744;23.174;2023-03-01T12:58:30;2.43;;;2.17;;
15699;SDS011;7950;42.744;23.174;2023-03-01T13:01:17;3.87;;;2.83;;
15699;SDS011;7950;42.744;23.174;2023-03-01T13:07:30;5.37;;;4.07;;
15699;SDS011;7950;42.744;23.174;2023-03-01T13:10:11;13.47;;;8.13;;
15699;SDS011;7950;42.744;23.174;2023-03-01T13:13:13;10.63;;;6.83;;
15699;SDS011;7950;42.744;23.174;2023-03-01T13:15:50;6.17;;;4.53;;
15699;SDS011;7950;42.744;23.174;2023-03-01T13:18:31;4.73;;;3.57;;
15699;SDS011;7950;42.744;23.174;2023-03-01T13:21:01;4.93;;;4.00;;
15699;SDS011;7950;42.744;23.174;2023-03-01T13:23:33;6.57;;;5.13;;
15699;SDS011;7950;42.744;23.174;2023-03-01T13:26:06;6.10;;;4.70;;
15699;SDS011;7950;42.744;23.174;2023-03-01T13:28:41;6.40;;;4.77;;
15699;SDS011;7950;42.744;23.174;2023-03-01T13:44:20;10.23;;;7.47;;
15699;SDS011;7950;42.744;23.174;2023-03-01T13:46:57;8.03;;;6.00;;
15699;SDS011;7950;42.744;23.174;2023-03-01T13:49:35;5.20;;;4.43;;
15699;SDS011;7950;42.744;23.174;2023-03-01T13:52:26;4.43;;;4.03;;
15699;SDS011;7950;42.744;23.174;2023-03-01T13:55:15;4.93;;;4.40;;
15699;SDS011;7950;42.744;23.174;2023-03-01T13:57:49;5.27;;;3.70;;
15699;SDS011;7950;42.744;23.174;2023-03-01T14:03:09;4.70;;;4.10;;
15699;SDS011;7950;42.744;23.174;2023-03-01T14:05:41;7.70;;;4.40;;
15699;SDS011;7950;42.744;23.174;2023-03-01T14:08:40;6.30;;;5.20;;
15699;SDS011;7950;42.744;23.174;2023-03-01T14:14:41;8.07;;;4.80;;
15699;SDS011;7950;42.744;23.174;2023-03-01T14:17:26;6.97;;;5.60;;
15699;SDS011;7950;42.744;23.174;2023-03-01T14:20:26;7.50;;;5.20;;
15699;SDS011;7950;42.744;23.174;2023-03-01T14:22:59;4.03;;;3.53;;
15699;SDS011;7950;42.744;23.174;2023-03-01T14:25:38;6.97;;;5.50;;
15699;SDS011;7950;42.744;23.174;2023-03-01T14:28:16;7.27;;;5.73;;
15699;SDS011;7950;42.744;23.174;2023-03-01T14:30:48;6.23;;;4.37;;
15699;SDS011;7950;42.744;23.174;2023-03-01T14:33:19;6.07;;;3.77;;
15699;SDS011;7950;42.744;23.174;2023-03-01T14:35:54;10.33;;;6.83;;
15699;SDS011;7950;42.744;23.174;2023-03-01T14:38:30;10.97;;;6.90;;
15699;SDS011;7950;42.744;23.174;2023-03-01T14:41:05;6.10;;;3.97;;
15699;SDS011;7950;42.744;23.174;2023-03-01T14:43:40;12.70;;;6.53;;
15699;SDS011;7950;42.744;23.174;2023-03-01T14:46:17;14.40;;;6.40;;
15699;SDS011;7950;42.744;23.174;2023-03-01T14:48:49;10.63;;;5.33;;
15699;SDS011;7950;42.744;23.174;2023-03-01T14:51:19;10.90;;;5.03;;
15699;SDS011;7950;42.744;23.174;2023-03-01T14:53:48;8.20;;;5.40;;
15699;SDS011;7950;42.744;23.174;2023-03-01T14:59:14;9.67;;;4.63;;
15699;SDS011;7950;42.744;23.174;2023-03-01T15:01:43;8.23;;;5.53;;
15699;SDS011;7950;42.744;23.174;2023-03-01T15:04:12;6.63;;;4.27;;
15699;SDS011;7950;42.744;23.174;2023-03-01T15:06:42;4.80;;;3.20;;
15699;SDS011;7950;42.744;23.174;2023-03-01T15:09:12;5.47;;;4.07;;
15699;SDS011;7950;42.744;23.174;2023-03-01T15:11:45;6.87;;;4.60;;
15699;SDS011;7950;42.744;23.174;2023-03-01T15:14:29;8.00;;;4.90;;
15699;SDS011;7950;42.744;23.174;2023-03-01T15:17:22;8.17;;;4.40;;
15699;SDS011;7950;42.744;23.174;2023-03-01T15:20:00;5.87;;;3.53;;
15699;SDS011;7950;42.744;23.174;2023-03-01T15:25:29;6.43;;;3.87;;
15699;SDS011;7950;42.744;23.174;2023-03-01T15:28:01;5.53;;;3.50;;
15699;SDS011;7950;42.744;23.174;2023-03-01T15:30:31;6.63;;;3.10;;
15699;SDS011;7950;42.744;23.174;2023-03-01T15:33:17;5.90;;;3.37;;
15699;SDS011;7950;42.744;23.174;2023-03-01T15:35:59;3.93;;;2.90;;
15699;SDS011;7950;42.744;23.174;2023-03-01T15:38:34;5.83;;;3.87;;
15699;SDS011;7950;42.744;23.174;2023-03-01T15:41:21;6.83;;;5.13;;
15699;SDS011;7950;42.744;23.174;2023-03-01T15:43:53;7.53;;;5.07;;
15699;SDS011;7950;42.744;23.174;2023-03-01T15:46:24;7.33;;;5.20;;
15699;SDS011;7950;42.744;23.174;2023-03-01T15:48:57;4.73;;;3.40;;
15699;SDS011;7950;42.744;23.174;2023-03-01T15:51:30;30.93;;;15.00;;
15699;SDS011;7950;42.744;23.174;2023-03-01T15:54:03;8.90;;;5.77;;
15699;SDS011;7950;42.744;23.174;2023-03-01T15:56:46;6.80;;;4.00;;
15699;SDS011;7950;42.744;23.174;2023-03-01T15:59:17;8.30;;;4.67;;
15699;SDS011;7950;42.744;23.174;2023-03-01T16:01:47;7.23;;;4.83;;
15699;SDS011;7950;42.744;23.174;2023-03-01T16:04:18;8.87;;;5.57;;
15699;SDS011;7950;42.744;23.174;2023-03-01T16:06:50;9.80;;;5.07;;
15699;SDS011;7950;42.744;23.174;2023-03-01T16:09:22;6.20;;;5.23;;
15699;SDS011;7950;42.744;23.174;2023-03-01T16:11:52;6.23;;;4.80;;
15699;SDS011;7950;42.744;23.174;2023-03-01T16:14:22;8.00;;;7.13;;
15699;SDS011;7950;42.744;23.174;2023-03-01T16:16:51;7.10;;;6.37;;
15699;SDS011;7950;42.744;23.174;2023-03-01T16:19:20;8.00;;;5.27;;
15699;SDS011;7950;42.744;23.174;2023-03-01T16:21:48;7.33;;;6.67;;
15699;SDS011;7950;42.744;23.174;2023-03-01T16:24:17;6.13;;;4.60;;
15699;SDS011;7950;42.744;23.174;2023-03-01T16:26:45;7.43;;;5.40;;
15699;SDS011;7950;42.744;23.174;2023-03-01T16:29:14;27.33;;;13.77;;
15699;SDS011;7950;42.744;23.174;2023-03-01T16:31:45;11.70;;;6.80;;